createdAt,value
2018-06-15T00:00:04.840Z,82.50
2018-06-15T00:00:36.226Z,82.50
2018-06-15T00:01:07.665Z,82.50
2018-06-15T00:01:39.046Z,82.50
2018-06-15T00:02:10.435Z,82.50
2018-06-15T00:03:13.578Z,82.60
2018-06-15T00:03:44.956Z,82.50
2018-06-15T00:04:16.348Z,82.60
2018-06-15T00:04:47.731Z,82.50
2018-06-15T00:05:19.115Z,82.60
2018-06-15T00:05:50.499Z,82.60
2018-06-15T00:06:21.933Z,82.60
2018-06-15T00:06:53.311Z,83.40
2018-06-15T00:07:24.690Z,82.60
2018-06-15T00:07:56.070Z,82.60
2018-06-15T00:08:27.458Z,82.60
2018-06-15T00:08:58.837Z,82.60
2018-06-15T00:09:30.213Z,82.60
2018-06-15T00:10:01.594Z,82.60
2018-06-15T00:10:32.970Z,82.60
2018-06-15T00:11:04.410Z,82.60
2018-06-15T00:11:35.792Z,82.60
2018-06-15T00:12:07.184Z,82.60
2018-06-15T00:12:38.571Z,82.60
2018-06-15T00:13:09.950Z,82.60
2018-06-15T00:13:41.330Z,82.60
2018-06-15T00:14:12.714Z,82.60
2018-06-15T00:14:44.103Z,83.40
2018-06-15T00:15:15.478Z,82.60
2018-06-15T00:15:46.858Z,82.60
2018-06-15T00:16:18.294Z,82.60
2018-06-15T00:16:49.683Z,82.60
2018-06-15T00:17:21.067Z,82.70
2018-06-15T00:17:52.451Z,82.70
2018-06-15T00:18:23.826Z,82.70
2018-06-15T00:18:55.218Z,82.70
2018-06-15T00:19:26.612Z,82.70
2018-06-15T00:19:57.993Z,82.70
2018-06-15T00:20:29.377Z,82.70
2018-06-15T00:21:00.760Z,82.70
2018-06-15T00:21:32.189Z,82.70
2018-06-15T00:22:03.569Z,82.70
2018-06-15T00:22:34.952Z,82.70
2018-06-15T00:23:06.334Z,82.70
2018-06-15T00:23:37.720Z,82.70
2018-06-15T00:24:09.105Z,82.70
2018-06-15T00:24:40.494Z,82.70
2018-06-15T00:25:11.875Z,82.70
2018-06-15T00:25:43.259Z,82.70
2018-06-15T00:26:14.698Z,82.70
2018-06-15T00:26:46.072Z,82.70
2018-06-15T00:27:17.470Z,83.50
2018-06-15T00:27:48.845Z,82.70
2018-06-15T00:28:20.222Z,82.70
2018-06-15T00:28:51.601Z,82.70
2018-06-15T00:29:23.034Z,82.70
2018-06-15T00:29:54.417Z,82.70
2018-06-15T00:30:25.796Z,82.70
2018-06-15T00:30:57.179Z,82.70
2018-06-15T00:31:28.617Z,82.70
2018-06-15T00:31:59.998Z,82.70
2018-06-15T00:33:03.151Z,82.70
2018-06-15T00:33:34.529Z,82.60
2018-06-15T00:34:05.906Z,82.70
2018-06-15T00:34:37.280Z,82.70
2018-06-15T00:35:08.654Z,82.70
2018-06-15T00:35:40.039Z,82.70
2018-06-15T00:36:11.418Z,82.70
2018-06-15T00:36:42.851Z,82.70
2018-06-15T00:37:14.237Z,82.70
2018-06-15T00:37:45.624Z,82.70
2018-06-15T00:38:17.006Z,82.70
2018-06-15T00:38:48.392Z,82.70
2018-06-15T00:39:19.772Z,82.70
2018-06-15T00:39:51.162Z,82.70
2018-06-15T00:40:22.539Z,82.70
2018-06-15T00:40:53.927Z,82.70
2018-06-15T00:41:25.311Z,82.70
2018-06-15T00:41:56.745Z,82.70
2018-06-15T00:42:28.128Z,82.70
2018-06-15T00:42:59.500Z,82.70
2018-06-15T00:43:30.882Z,82.70
2018-06-15T00:44:02.258Z,82.70
2018-06-15T00:44:33.646Z,82.70
2018-06-15T00:45:05.028Z,82.70
2018-06-15T00:45:36.431Z,82.70
2018-06-15T00:46:07.812Z,82.70
2018-06-15T00:46:39.200Z,82.70
2018-06-15T00:47:10.637Z,82.70
2018-06-15T00:47:42.017Z,82.70
2018-06-15T00:48:13.406Z,82.70
2018-06-15T00:48:44.780Z,82.70
2018-06-15T00:49:16.161Z,82.70
2018-06-15T00:49:47.554Z,82.70
2018-06-15T00:50:18.933Z,82.80
2018-06-15T00:50:50.314Z,82.80
2018-06-15T00:51:21.694Z,82.80
2018-06-15T00:51:53.142Z,82.80
2018-06-15T00:52:24.533Z,82.80
2018-06-15T00:52:55.929Z,82.80
2018-06-15T00:53:27.314Z,82.80
2018-06-15T00:53:58.698Z,82.80
2018-06-15T00:54:30.084Z,82.80
2018-06-15T00:55:01.470Z,82.80
2018-06-15T00:55:32.857Z,82.80
2018-06-15T00:56:04.241Z,82.80
2018-06-15T00:56:35.627Z,82.80
2018-06-15T00:57:07.061Z,82.80
2018-06-15T00:57:38.445Z,82.80
2018-06-15T00:58:09.827Z,82.70
2018-06-15T00:58:41.207Z,82.70
2018-06-15T00:59:12.587Z,82.70
2018-06-15T00:59:43.975Z,82.70
2018-06-15T01:00:15.363Z,82.70
2018-06-15T01:00:46.746Z,82.70
2018-06-15T01:01:18.124Z,82.70
2018-06-15T01:01:49.496Z,82.70
2018-06-15T01:02:20.948Z,82.70
2018-06-15T01:02:52.330Z,82.70
2018-06-15T01:03:23.710Z,82.70
2018-06-15T01:03:55.098Z,82.70
2018-06-15T01:04:26.481Z,82.70
2018-06-15T01:04:57.860Z,82.70
2018-06-15T01:05:29.259Z,82.70
2018-06-15T01:06:00.649Z,82.70
2018-06-15T01:06:32.032Z,82.70
2018-06-15T01:07:03.416Z,82.70
2018-06-15T01:07:34.859Z,82.70
2018-06-15T01:08:06.246Z,82.70
2018-06-15T01:08:37.634Z,82.70
2018-06-15T01:09:09.018Z,82.70
2018-06-15T01:09:40.401Z,82.70
2018-06-15T01:10:11.781Z,82.70
2018-06-15T01:10:43.162Z,82.70
2018-06-15T01:11:14.541Z,82.70
2018-06-15T01:11:45.930Z,82.70
2018-06-15T01:12:17.364Z,82.70
2018-06-15T01:12:48.746Z,82.70
2018-06-15T01:13:20.133Z,82.70
2018-06-15T01:13:51.514Z,82.70
2018-06-15T01:14:22.901Z,82.70
2018-06-15T01:14:54.288Z,83.40
2018-06-15T01:15:25.686Z,82.70
2018-06-15T01:15:57.061Z,82.70
2018-06-15T01:16:28.436Z,82.70
2018-06-15T01:16:59.817Z,82.70
2018-06-15T01:17:31.272Z,82.70
2018-06-15T01:18:02.658Z,82.70
2018-06-15T01:18:34.042Z,82.70
2018-06-15T01:19:05.422Z,82.70
2018-06-15T01:19:36.809Z,82.70
2018-06-15T01:20:08.200Z,82.70
2018-06-15T01:20:39.585Z,82.70
2018-06-15T01:21:10.984Z,82.70
2018-06-15T01:21:42.358Z,82.70
2018-06-15T01:22:13.743Z,82.70
2018-06-15T01:22:45.176Z,82.70
2018-06-15T01:23:16.556Z,82.70
2018-06-15T01:23:47.930Z,82.70
2018-06-15T01:24:19.310Z,82.70
2018-06-15T01:24:50.691Z,82.70
2018-06-15T01:25:22.078Z,82.70
2018-06-15T01:25:53.458Z,82.70
2018-06-15T01:26:24.844Z,82.90
2018-06-15T01:26:56.220Z,82.70
2018-06-15T01:27:27.606Z,82.70
2018-06-15T01:27:58.993Z,82.70
2018-06-15T01:28:30.379Z,82.70
2018-06-15T01:29:01.761Z,82.70
2018-06-15T01:29:33.146Z,82.70
2018-06-15T01:30:04.530Z,82.70
2018-06-15T01:30:35.908Z,82.70
2018-06-15T01:31:07.293Z,82.70
2018-06-15T01:31:38.676Z,82.70
2018-06-15T01:32:10.068Z,82.70
2018-06-15T01:32:41.518Z,82.70
2018-06-15T01:33:12.898Z,82.70
2018-06-15T01:33:44.282Z,82.70
2018-06-15T01:34:15.665Z,82.70
2018-06-15T01:34:47.055Z,82.70
2018-06-15T01:35:18.434Z,82.70
2018-06-15T01:35:49.812Z,82.70
2018-06-15T01:36:21.200Z,82.70
2018-06-15T01:36:52.588Z,82.70
2018-06-15T01:37:23.965Z,82.70
2018-06-15T01:37:55.346Z,82.70
2018-06-15T01:38:26.730Z,82.70
2018-06-15T01:38:58.112Z,82.70
2018-06-15T01:39:29.501Z,82.70
2018-06-15T01:40:00.897Z,82.70
2018-06-15T01:40:32.281Z,82.70
2018-06-15T01:41:03.660Z,82.70
2018-06-15T01:41:35.041Z,82.70
2018-06-15T01:42:06.445Z,82.70
2018-06-15T01:42:37.828Z,82.70
2018-06-15T01:43:09.209Z,83.50
2018-06-15T01:43:40.589Z,82.70
2018-06-15T01:44:11.976Z,82.80
2018-06-15T01:44:43.364Z,82.70
2018-06-15T01:45:14.747Z,82.80
2018-06-15T01:45:46.133Z,82.70
2018-06-15T01:46:17.514Z,82.80
2018-06-15T01:46:48.892Z,82.80
2018-06-15T01:47:20.279Z,82.80
2018-06-15T01:47:51.730Z,82.80
2018-06-15T01:48:23.113Z,83.50
2018-06-15T01:48:54.489Z,82.80
2018-06-15T01:49:25.859Z,82.80
2018-06-15T01:49:57.240Z,82.70
2018-06-15T01:50:28.622Z,82.70
2018-06-15T01:51:00.011Z,82.70
2018-06-15T01:51:31.405Z,82.70
2018-06-15T01:52:02.805Z,82.70
2018-06-15T01:52:34.189Z,82.70
2018-06-15T01:53:05.634Z,82.70
2018-06-15T01:53:37.026Z,82.70
2018-06-15T01:54:40.183Z,82.80
2018-06-15T01:55:11.570Z,82.80
2018-06-15T01:55:42.946Z,82.70
2018-06-15T01:56:14.324Z,82.80
2018-06-15T01:56:45.710Z,82.70
2018-06-15T01:57:17.093Z,82.80
2018-06-15T01:57:48.475Z,82.70
2018-06-15T01:58:19.926Z,82.70
2018-06-15T01:58:51.309Z,82.70
2018-06-15T01:59:22.684Z,82.70
2018-06-15T01:59:54.069Z,82.80
2018-06-15T02:00:25.453Z,82.80
2018-06-15T02:00:56.830Z,82.80
2018-06-15T02:01:28.287Z,82.80
2018-06-15T02:01:59.635Z,82.80
2018-06-15T02:02:31.022Z,82.80
2018-06-15T02:03:02.407Z,82.80
2018-06-15T02:03:33.837Z,82.80
2018-06-15T02:04:05.216Z,82.80
2018-06-15T02:04:36.597Z,82.80
2018-06-15T02:05:39.742Z,82.80
2018-06-15T02:06:11.126Z,82.80
2018-06-15T02:06:42.506Z,82.80
2018-06-15T02:07:13.885Z,82.80
2018-06-15T02:07:45.302Z,82.80
2018-06-15T02:08:16.746Z,82.80
2018-06-15T02:08:48.137Z,82.80
2018-06-15T02:09:19.523Z,82.70
2018-06-15T02:09:50.905Z,82.80
2018-06-15T02:10:22.285Z,82.80
2018-06-15T02:10:53.661Z,82.80
2018-06-15T02:11:25.043Z,82.80
2018-06-15T02:11:56.431Z,82.70
2018-06-15T02:12:27.811Z,82.80
2018-06-15T02:12:59.197Z,82.80
2018-06-15T02:13:30.670Z,82.70
2018-06-15T02:14:02.082Z,82.70
2018-06-15T02:14:33.469Z,82.80
2018-06-15T02:15:04.847Z,82.80
2018-06-15T02:15:36.232Z,82.80
2018-06-15T02:16:07.619Z,82.80
2018-06-15T02:16:38.999Z,82.80
2018-06-15T02:17:10.386Z,82.70
2018-06-15T02:17:41.766Z,82.80
2018-06-15T02:18:13.157Z,82.70
2018-06-15T02:18:44.605Z,82.80
2018-06-15T02:19:16.000Z,82.70
2018-06-15T02:19:47.386Z,82.80
2018-06-15T02:20:18.774Z,82.80
2018-06-15T02:20:50.159Z,82.80
2018-06-15T02:21:21.543Z,82.80
2018-06-15T02:21:52.929Z,82.80
2018-06-15T02:22:24.318Z,82.80
2018-06-15T02:22:55.710Z,82.80
2018-06-15T02:23:27.146Z,82.80
2018-06-15T02:23:58.525Z,82.80
2018-06-15T02:24:29.911Z,82.80
2018-06-15T02:25:01.299Z,82.80
2018-06-15T02:25:32.673Z,82.80
2018-06-15T02:26:04.055Z,82.80
2018-06-15T02:26:35.440Z,82.80
2018-06-15T02:27:06.836Z,82.80
2018-06-15T02:27:38.242Z,82.80
2018-06-15T02:28:09.626Z,82.80
2018-06-15T02:28:41.061Z,82.80
2018-06-15T02:29:12.445Z,82.80
2018-06-15T02:29:43.834Z,82.80
2018-06-15T02:30:15.261Z,82.80
2018-06-15T02:30:46.642Z,82.80
2018-06-15T02:31:18.023Z,82.80
2018-06-15T02:31:49.407Z,82.80
2018-06-15T02:32:20.796Z,82.80
2018-06-15T02:32:52.182Z,82.80
2018-06-15T02:33:23.627Z,82.80
2018-06-15T02:33:55.008Z,82.80
2018-06-15T02:34:26.386Z,82.80
2018-06-15T02:34:57.780Z,82.80
2018-06-15T02:35:29.164Z,82.80
2018-06-15T02:36:00.559Z,82.80
2018-06-15T02:36:31.947Z,82.80
2018-06-15T02:37:03.329Z,83.70
2018-06-15T02:37:34.714Z,82.80
2018-06-15T02:38:06.105Z,82.80
2018-06-15T02:38:37.540Z,82.80
2018-06-15T02:39:08.922Z,82.80
2018-06-15T02:39:40.309Z,83.50
2018-06-15T02:40:11.692Z,82.80
2018-06-15T02:40:43.078Z,82.80
2018-06-15T02:41:14.471Z,82.80
2018-06-15T02:41:45.860Z,82.80
2018-06-15T02:42:17.244Z,82.80
2018-06-15T02:42:48.626Z,82.80
2018-06-15T02:43:20.006Z,82.80
2018-06-15T02:43:51.450Z,82.80
2018-06-15T02:44:22.832Z,82.80
2018-06-15T02:44:54.211Z,82.80
2018-06-15T02:45:25.695Z,82.80
2018-06-15T02:45:57.037Z,82.80
2018-06-15T02:46:28.423Z,82.80
2018-06-15T02:46:59.804Z,82.80
2018-06-15T02:47:31.188Z,82.80
2018-06-15T02:48:02.568Z,82.80
2018-06-15T02:48:34.014Z,82.80
2018-06-15T02:49:05.428Z,82.80
2018-06-15T02:49:36.820Z,82.80
2018-06-15T02:50:39.977Z,82.80
2018-06-15T02:51:11.366Z,82.80
2018-06-15T02:51:42.754Z,83.70
2018-06-15T02:52:14.129Z,82.80
2018-06-15T02:52:45.514Z,83.00
2018-06-15T02:53:16.897Z,82.90
2018-06-15T02:53:48.334Z,82.80
2018-06-15T02:54:19.721Z,82.80
2018-06-15T02:54:51.111Z,82.80
2018-06-15T02:55:22.504Z,82.80
2018-06-15T02:55:53.888Z,82.80
2018-06-15T02:56:25.275Z,83.50
2018-06-15T02:56:56.648Z,82.80
2018-06-15T02:57:28.034Z,82.80
2018-06-15T02:57:59.416Z,82.80
2018-06-15T02:58:30.805Z,82.90
2018-06-15T02:59:02.307Z,82.80
2018-06-15T02:59:33.680Z,82.80
2018-06-15T03:00:05.071Z,82.90
2018-06-15T03:00:36.468Z,82.80
2018-06-15T03:01:07.862Z,82.80
2018-06-15T03:01:39.258Z,82.90
2018-06-15T03:02:10.651Z,82.80
2018-06-15T03:02:42.036Z,82.90
2018-06-15T03:03:13.420Z,82.80
2018-06-15T03:03:44.872Z,82.90
2018-06-15T03:04:16.254Z,82.90
2018-06-15T03:04:47.638Z,82.90
2018-06-15T03:05:19.013Z,82.90
2018-06-15T03:05:50.388Z,82.90
2018-06-15T03:06:21.767Z,82.90
2018-06-15T03:06:53.140Z,82.90
2018-06-15T03:07:24.517Z,83.10
2018-06-15T03:07:55.908Z,82.80
2018-06-15T03:08:27.291Z,82.80
2018-06-15T03:08:58.728Z,82.80
2018-06-15T03:09:30.115Z,82.80
2018-06-15T03:10:01.505Z,82.80
2018-06-15T03:10:32.890Z,83.60
2018-06-15T03:11:04.278Z,82.80
2018-06-15T03:11:35.669Z,82.90
2018-06-15T03:12:07.060Z,82.80
2018-06-15T03:12:38.448Z,82.80
2018-06-15T03:13:09.828Z,82.80
2018-06-15T03:13:41.287Z,82.80
2018-06-15T03:14:12.674Z,82.80
2018-06-15T03:14:44.068Z,82.90
2018-06-15T03:15:15.466Z,82.80
2018-06-15T03:15:46.851Z,82.90
2018-06-15T03:16:18.245Z,82.90
2018-06-15T03:16:49.629Z,82.90
2018-06-15T03:17:21.016Z,82.90
2018-06-15T03:17:52.404Z,82.90
2018-06-15T03:18:23.788Z,82.90
2018-06-15T03:18:55.237Z,82.90
2018-06-15T03:19:26.622Z,82.80
2018-06-15T03:19:58.008Z,82.90
2018-06-15T03:20:29.398Z,82.90
2018-06-15T03:21:00.789Z,82.90
2018-06-15T03:21:32.182Z,82.90
2018-06-15T03:22:03.575Z,82.90
2018-06-15T03:22:34.981Z,82.90
2018-06-15T03:23:06.380Z,82.90
2018-06-15T03:23:37.770Z,83.70
2018-06-15T03:24:09.209Z,82.90
2018-06-15T03:24:40.583Z,82.90
2018-06-15T03:25:12.001Z,82.80
2018-06-15T03:25:43.428Z,82.90
2018-06-15T03:26:14.814Z,82.90
2018-06-15T03:26:46.198Z,82.80
2018-06-15T03:27:17.590Z,82.90
2018-06-15T03:27:48.989Z,82.90
2018-06-15T03:28:20.374Z,82.90
2018-06-15T03:28:51.823Z,82.90
2018-06-15T03:29:23.200Z,82.90
2018-06-15T03:29:54.586Z,82.80
2018-06-15T03:30:25.992Z,82.90
2018-06-15T03:30:57.376Z,82.80
2018-06-15T03:31:28.770Z,82.90
2018-06-15T03:32:00.157Z,82.90
2018-06-15T03:32:31.559Z,83.00
2018-06-15T03:33:02.946Z,82.80
2018-06-15T03:33:34.331Z,82.90
2018-06-15T03:34:05.773Z,82.90
2018-06-15T03:34:37.161Z,82.90
2018-06-15T03:35:08.569Z,83.00
2018-06-15T03:35:39.946Z,83.00
2018-06-15T03:36:11.335Z,83.00
2018-06-15T03:36:42.707Z,83.00
2018-06-15T03:37:14.097Z,83.00
2018-06-15T03:37:45.509Z,83.00
2018-06-15T03:38:16.902Z,83.40
2018-06-15T03:38:48.286Z,83.00
2018-06-15T03:39:19.730Z,82.90
2018-06-15T03:39:51.115Z,83.00
2018-06-15T03:40:22.501Z,83.00
2018-06-15T03:40:53.888Z,83.00
2018-06-15T03:41:25.282Z,83.00
2018-06-15T03:41:56.665Z,82.90
2018-06-15T03:42:28.050Z,83.00
2018-06-15T03:42:59.435Z,82.90
2018-06-15T03:43:30.827Z,82.90
2018-06-15T03:44:02.269Z,82.90
2018-06-15T03:44:33.648Z,82.90
2018-06-15T03:45:05.043Z,82.90
2018-06-15T03:45:36.417Z,82.90
2018-06-15T03:46:07.811Z,83.00
2018-06-15T03:46:39.192Z,83.00
2018-06-15T03:47:10.580Z,83.00
2018-06-15T03:47:41.958Z,83.00
2018-06-15T03:48:13.338Z,83.00
2018-06-15T03:48:44.718Z,83.00
2018-06-15T03:49:16.162Z,83.00
2018-06-15T03:49:47.547Z,83.00
2018-06-15T03:50:18.925Z,83.00
2018-06-15T03:50:50.317Z,83.00
2018-06-15T03:51:21.711Z,83.00
2018-06-15T03:51:53.097Z,83.00
2018-06-15T03:52:24.485Z,83.00
2018-06-15T03:52:55.895Z,83.00
2018-06-15T03:53:27.286Z,82.90
2018-06-15T03:53:58.668Z,83.00
2018-06-15T03:54:30.114Z,83.00
2018-06-15T03:55:01.521Z,83.80
2018-06-15T03:55:32.904Z,82.90
2018-06-15T03:56:04.284Z,83.00
2018-06-15T03:56:35.666Z,83.00
2018-06-15T03:57:07.052Z,83.00
2018-06-15T03:57:38.437Z,82.90
2018-06-15T03:58:09.825Z,83.00
2018-06-15T03:58:41.213Z,83.00
2018-06-15T03:59:12.650Z,83.00
2018-06-15T03:59:44.036Z,83.00
2018-06-15T04:00:15.417Z,83.00
2018-06-15T04:00:46.790Z,83.00
2018-06-15T04:01:18.178Z,83.00
2018-06-15T04:01:49.573Z,83.00
2018-06-15T04:02:20.961Z,83.00
2018-06-15T04:02:52.336Z,83.00
2018-06-15T04:03:23.712Z,83.10
2018-06-15T04:03:55.097Z,83.00
2018-06-15T04:04:26.540Z,83.00
2018-06-15T04:04:57.934Z,83.00
2018-06-15T04:05:29.323Z,83.00
2018-06-15T04:06:00.706Z,83.00
2018-06-15T04:06:32.120Z,83.00
2018-06-15T04:07:03.518Z,83.00
2018-06-15T04:07:34.927Z,83.00
2018-06-15T04:08:06.322Z,83.00
2018-06-15T04:08:37.706Z,83.00
2018-06-15T04:09:09.155Z,83.00
2018-06-15T04:09:40.545Z,83.00
2018-06-15T04:10:11.925Z,83.00
2018-06-15T04:10:43.311Z,83.00
2018-06-15T04:11:14.689Z,83.00
2018-06-15T04:11:46.079Z,83.00
2018-06-15T04:12:17.468Z,83.10
2018-06-15T04:12:48.854Z,83.00
2018-06-15T04:13:20.228Z,83.10
2018-06-15T04:13:51.606Z,83.00
2018-06-15T04:14:23.049Z,83.00
2018-06-15T04:14:54.435Z,83.00
2018-06-15T04:15:25.815Z,83.10
2018-06-15T04:15:57.210Z,83.10
2018-06-15T04:16:28.599Z,83.00
2018-06-15T04:16:59.983Z,83.10
2018-06-15T04:17:31.356Z,83.10
2018-06-15T04:18:02.737Z,83.00
2018-06-15T04:18:34.129Z,83.00
2018-06-15T04:19:05.517Z,83.10
2018-06-15T04:19:36.954Z,83.00
2018-06-15T04:20:08.333Z,83.00
2018-06-15T04:20:39.709Z,83.00
2018-06-15T04:21:11.080Z,83.00
2018-06-15T04:21:42.461Z,83.10
2018-06-15T04:22:13.841Z,83.00
2018-06-15T04:22:45.222Z,83.00
2018-06-15T04:23:16.607Z,83.00
2018-06-15T04:23:48.003Z,83.00
2018-06-15T04:24:19.449Z,83.00
2018-06-15T04:24:50.830Z,83.00
2018-06-15T04:25:22.222Z,83.50
2018-06-15T04:25:53.609Z,83.00
2018-06-15T04:26:24.995Z,83.00
2018-06-15T04:26:56.376Z,83.00
2018-06-15T04:27:27.757Z,83.00
2018-06-15T04:27:59.137Z,83.00
2018-06-15T04:28:30.517Z,83.00
2018-06-15T04:29:01.904Z,83.00
2018-06-15T04:29:33.344Z,83.00
2018-06-15T04:30:04.730Z,83.00
2018-06-15T04:30:36.113Z,83.00
2018-06-15T04:31:07.500Z,83.00
2018-06-15T04:31:38.888Z,83.00
2018-06-15T04:32:10.266Z,83.00
2018-06-15T04:32:41.645Z,83.00
2018-06-15T04:33:13.034Z,83.00
2018-06-15T04:33:44.414Z,82.90
2018-06-15T04:34:15.788Z,83.00
2018-06-15T04:34:47.229Z,83.00
2018-06-15T04:35:18.605Z,83.00
2018-06-15T04:35:49.980Z,83.00
2018-06-15T04:36:21.361Z,83.00
2018-06-15T04:36:52.742Z,83.00
2018-06-15T04:37:24.132Z,83.00
2018-06-15T04:37:55.552Z,83.00
2018-06-15T04:38:26.940Z,83.00
2018-06-15T04:38:58.329Z,83.00
2018-06-15T04:39:29.774Z,83.00
2018-06-15T04:40:01.161Z,83.00
2018-06-15T04:40:32.539Z,83.00
2018-06-15T04:41:03.921Z,83.00
2018-06-15T04:41:35.307Z,83.00
2018-06-15T04:42:06.689Z,83.00
2018-06-15T04:42:38.076Z,83.00
2018-06-15T04:43:09.474Z,83.00
2018-06-15T04:43:40.855Z,83.00
2018-06-15T04:44:12.233Z,83.00
2018-06-15T04:44:43.671Z,83.00
2018-06-15T04:45:15.051Z,83.00
2018-06-15T04:45:46.489Z,83.00
2018-06-15T04:46:17.869Z,83.00
2018-06-15T04:46:49.259Z,83.00
2018-06-15T04:47:20.639Z,83.50
2018-06-15T04:47:52.024Z,83.00
2018-06-15T04:48:24.550Z,83.10
2018-06-15T04:48:56.115Z,83.00
2018-06-15T04:49:27.563Z,83.00
2018-06-15T04:49:58.952Z,83.00
2018-06-15T04:50:30.332Z,83.00
2018-06-15T04:51:01.723Z,83.00
2018-06-15T04:51:33.102Z,83.00
2018-06-15T04:52:04.492Z,83.00
2018-06-15T04:52:35.870Z,83.00
2018-06-15T04:53:07.257Z,83.00
2018-06-15T04:53:38.632Z,83.00
2018-06-15T04:54:10.024Z,83.00
2018-06-15T04:54:41.458Z,83.00
2018-06-15T04:55:12.842Z,83.00
2018-06-15T04:55:44.224Z,83.00
2018-06-15T04:56:15.661Z,83.00
2018-06-15T04:56:47.041Z,83.00
2018-06-15T04:57:18.419Z,83.00
2018-06-15T04:57:49.810Z,83.00
2018-06-15T04:58:21.201Z,83.00
2018-06-15T04:58:52.587Z,83.00
2018-06-15T04:59:24.785Z,83.00
2018-06-15T04:59:56.283Z,83.00
2018-06-15T05:00:28.628Z,83.00
2018-06-15T05:01:00.023Z,83.00
2018-06-15T05:01:31.409Z,83.00
2018-06-15T05:02:02.795Z,83.00
2018-06-15T05:02:34.182Z,83.00
2018-06-15T05:03:05.574Z,83.00
2018-06-15T05:03:36.953Z,83.00
2018-06-15T05:04:08.342Z,83.00
2018-06-15T05:04:39.795Z,83.00
2018-06-15T05:05:11.182Z,83.00
2018-06-15T05:05:42.564Z,83.00
2018-06-15T05:06:13.957Z,83.00
2018-06-15T05:06:45.347Z,83.00
2018-06-15T05:07:16.738Z,83.00
2018-06-15T05:07:48.124Z,82.50
2018-06-15T05:08:19.516Z,83.00
2018-06-15T05:08:50.910Z,83.00
2018-06-15T05:09:22.300Z,83.00
2018-06-15T05:09:53.702Z,83.00
2018-06-15T05:10:25.085Z,83.00
2018-06-15T05:10:56.474Z,83.00
2018-06-15T05:11:27.858Z,83.00
2018-06-15T05:11:59.242Z,83.00
2018-06-15T05:12:30.634Z,83.00
2018-06-15T05:13:02.010Z,83.00
2018-06-15T05:13:33.385Z,83.00
2018-06-15T05:14:04.769Z,83.00
2018-06-15T05:14:36.218Z,83.00
2018-06-15T05:15:07.601Z,83.00
2018-06-15T05:15:38.981Z,83.00
2018-06-15T05:16:10.358Z,83.00
2018-06-15T05:16:41.748Z,83.00
2018-06-15T05:17:13.174Z,83.00
2018-06-15T05:17:44.581Z,83.00
2018-06-15T05:18:15.960Z,83.00
2018-06-15T05:18:47.347Z,83.00
2018-06-15T05:19:18.739Z,83.00
2018-06-15T05:19:50.114Z,83.00
2018-06-15T05:20:21.494Z,83.00
2018-06-15T05:20:52.869Z,83.00
2018-06-15T05:21:24.251Z,83.00
2018-06-15T05:21:55.632Z,83.00
2018-06-15T05:22:27.014Z,83.00
2018-06-15T05:22:58.397Z,83.00
2018-06-15T05:23:29.768Z,83.00
2018-06-15T05:24:01.143Z,83.00
2018-06-15T05:24:32.515Z,83.00
2018-06-15T05:25:03.899Z,83.00
2018-06-15T05:25:35.290Z,83.00
2018-06-15T05:26:06.672Z,83.00
2018-06-15T05:26:38.050Z,83.00
2018-06-15T05:27:09.436Z,83.00
2018-06-15T05:27:40.827Z,83.00
2018-06-15T05:28:12.213Z,83.00
2018-06-15T05:28:43.597Z,83.00
2018-06-15T05:29:14.979Z,83.00
2018-06-15T05:29:46.375Z,83.00
2018-06-15T05:30:17.754Z,83.00
2018-06-15T05:30:49.141Z,83.00
2018-06-15T05:31:20.524Z,83.00
2018-06-15T05:31:51.914Z,83.00
2018-06-15T05:32:23.293Z,83.00
2018-06-15T05:32:54.673Z,83.00
2018-06-15T05:33:26.056Z,83.00
2018-06-15T05:33:57.438Z,83.00
2018-06-15T05:34:28.829Z,83.00
2018-06-15T05:35:00.272Z,83.00
2018-06-15T05:35:31.666Z,83.00
2018-06-15T05:36:03.049Z,83.00
2018-06-15T05:36:34.434Z,83.00
2018-06-15T05:37:05.826Z,83.00
2018-06-15T05:37:37.211Z,83.00
2018-06-15T05:38:08.596Z,83.00
2018-06-15T05:38:39.985Z,83.00
2018-06-15T05:39:11.375Z,83.00
2018-06-15T05:39:42.756Z,83.00
2018-06-15T05:40:14.190Z,82.50
2018-06-15T05:40:45.579Z,83.00
2018-06-15T05:41:16.962Z,83.00
2018-06-15T05:41:48.347Z,83.00
2018-06-15T05:42:19.732Z,83.00
2018-06-15T05:42:51.109Z,83.00
2018-06-15T05:43:22.496Z,83.00
2018-06-15T05:43:53.892Z,83.00
2018-06-15T05:44:25.279Z,83.00
2018-06-15T05:44:56.719Z,83.00
2018-06-15T05:45:28.117Z,83.00
2018-06-15T05:45:59.508Z,83.00
2018-06-15T05:46:30.897Z,83.00
2018-06-15T05:47:02.281Z,83.00
2018-06-15T05:47:33.658Z,83.10
2018-06-15T05:48:05.038Z,83.00
2018-06-15T05:48:36.424Z,83.00
2018-06-15T05:49:07.800Z,83.00
2018-06-15T05:49:39.201Z,83.00
2018-06-15T05:50:10.637Z,83.00
2018-06-15T05:50:42.018Z,83.00
2018-06-15T05:51:13.408Z,83.10
2018-06-15T05:51:44.790Z,83.00
2018-06-15T05:52:16.183Z,82.40
2018-06-15T05:52:47.562Z,83.10
2018-06-15T05:53:18.952Z,83.10
2018-06-15T05:53:50.323Z,83.10
2018-06-15T05:54:21.711Z,83.90
2018-06-15T05:54:53.099Z,83.10
2018-06-15T05:55:24.537Z,83.10
2018-06-15T05:55:55.929Z,83.10
2018-06-15T05:56:27.313Z,83.10
2018-06-15T05:56:58.689Z,83.10
2018-06-15T05:57:30.073Z,83.10
2018-06-15T05:58:01.455Z,83.10
2018-06-15T05:58:32.842Z,83.10
2018-06-15T05:59:04.229Z,83.10
2018-06-15T05:59:35.609Z,83.10
2018-06-15T06:00:07.053Z,83.10
2018-06-15T06:00:38.440Z,83.10
2018-06-15T06:01:09.829Z,83.10
2018-06-15T06:01:41.213Z,83.10
2018-06-15T06:02:12.625Z,83.10
2018-06-15T06:02:44.005Z,83.10
2018-06-15T06:03:15.379Z,83.10
2018-06-15T06:03:46.805Z,83.10
2018-06-15T06:04:18.207Z,83.10
2018-06-15T06:04:49.597Z,83.10
2018-06-15T06:05:21.033Z,83.10
2018-06-15T06:05:52.418Z,83.10
2018-06-15T06:06:23.790Z,83.10
2018-06-15T06:06:55.174Z,83.10
2018-06-15T06:07:26.562Z,83.10
2018-06-15T06:07:57.945Z,83.10
2018-06-15T06:08:29.332Z,83.10
2018-06-15T06:09:00.729Z,83.10
2018-06-15T06:09:32.113Z,83.10
2018-06-15T06:10:03.561Z,83.10
2018-06-15T06:10:34.946Z,83.10
2018-06-15T06:11:06.340Z,83.10
2018-06-15T06:11:37.717Z,82.80
2018-06-15T06:12:09.093Z,83.10
2018-06-15T06:12:40.473Z,83.10
2018-06-15T06:13:11.863Z,83.20
2018-06-15T06:13:43.250Z,83.20
2018-06-15T06:14:14.638Z,83.20
2018-06-15T06:14:46.017Z,83.10
2018-06-15T06:15:17.456Z,83.10
2018-06-15T06:15:48.847Z,83.20
2018-06-15T06:16:20.234Z,83.10
2018-06-15T06:16:51.614Z,83.20
2018-06-15T06:17:23.001Z,83.20
2018-06-15T06:17:54.391Z,83.20
2018-06-15T06:18:25.782Z,83.20
2018-06-15T06:18:57.162Z,83.20
2018-06-15T06:19:28.544Z,83.20
2018-06-15T06:19:59.944Z,83.20
2018-06-15T06:20:31.394Z,83.20
2018-06-15T06:21:02.777Z,83.20
2018-06-15T06:21:34.161Z,83.20
2018-06-15T06:22:05.539Z,83.20
2018-06-15T06:22:36.920Z,83.20
2018-06-15T06:23:08.308Z,83.20
2018-06-15T06:23:39.694Z,83.20
2018-06-15T06:24:11.078Z,83.20
2018-06-15T06:24:42.458Z,83.20
2018-06-15T06:25:13.904Z,83.20
2018-06-15T06:25:45.286Z,83.20
2018-06-15T06:26:16.669Z,83.20
2018-06-15T06:26:48.115Z,83.20
2018-06-15T06:27:19.494Z,83.20
2018-06-15T06:27:50.872Z,83.20
2018-06-15T06:28:22.265Z,83.20
2018-06-15T06:28:53.645Z,83.20
2018-06-15T06:29:25.037Z,83.20
2018-06-15T06:29:56.418Z,83.20
2018-06-15T06:30:27.857Z,83.20
2018-06-15T06:30:59.238Z,83.20
2018-06-15T06:31:30.620Z,83.20
2018-06-15T06:32:02.025Z,83.20
2018-06-15T06:32:33.443Z,83.20
2018-06-15T06:33:04.836Z,83.70
2018-06-15T06:33:36.225Z,83.20
2018-06-15T06:34:07.613Z,83.30
2018-06-15T06:34:39.008Z,83.30
2018-06-15T06:35:10.393Z,83.20
2018-06-15T06:35:41.837Z,83.80
2018-06-15T06:36:13.218Z,83.20
2018-06-15T06:36:44.598Z,83.20
2018-06-15T06:37:15.984Z,83.20
2018-06-15T06:37:47.366Z,83.20
2018-06-15T06:38:18.764Z,83.20
2018-06-15T06:38:50.146Z,83.20
2018-06-15T06:39:21.529Z,83.30
2018-06-15T06:39:52.916Z,83.30
2018-06-15T06:40:24.354Z,83.30
2018-06-15T06:40:55.732Z,83.30
2018-06-15T06:41:27.118Z,83.30
2018-06-15T06:41:58.514Z,83.30
2018-06-15T06:42:29.893Z,83.30
2018-06-15T06:43:01.281Z,83.30
2018-06-15T06:43:32.667Z,83.30
2018-06-15T06:44:04.058Z,83.30
2018-06-15T06:44:35.444Z,83.30
2018-06-15T06:45:06.845Z,83.30
2018-06-15T06:45:38.289Z,83.30
2018-06-15T06:46:41.435Z,83.30
2018-06-15T06:47:12.827Z,83.30